createdAt,value
2022-09-15T00:01:29.578Z,100518.16
2022-09-15T00:03:57.950Z,100522.59
2022-09-15T00:06:26.094Z,100523.53
2022-09-15T00:08:54.623Z,100523.63
2022-09-15T00:11:27.062Z,100523.63
2022-09-15T00:13:56.949Z,100520.88
2022-09-15T00:16:28.218Z,100524.31
2022-09-15T00:18:56.939Z,100524.16
2022-09-15T00:21:28.929Z,100524.91
2022-09-15T00:23:57.357Z,100521.25
2022-09-15T00:26:31.487Z,100517.59
2022-09-15T00:29:01.095Z,100521.88
2022-09-15T00:31:31.377Z,100516.50
2022-09-15T00:34:02.723Z,100519.09
2022-09-15T00:36:31.075Z,100522.47
2022-09-15T00:38:59.798Z,100524.19
2022-09-15T00:41:29.624Z,100522.31
2022-09-15T00:44:00.045Z,100523.09
2022-09-15T00:46:35.399Z,100523.91
2022-09-15T00:49:08.810Z,100519.38
2022-09-15T00:51:42.429Z,100521.06
2022-09-15T00:54:14.225Z,100520.09
2022-09-15T00:56:45.340Z,100530.63
2022-09-15T00:59:17.809Z,100528.81
2022-09-15T01:01:47.492Z,100529.66
2022-09-15T01:04:17.530Z,100527.88
2022-09-15T01:06:50.506Z,100527.88
2022-09-15T01:09:24.013Z,100523.47
2022-09-15T01:11:53.561Z,100520.81
2022-09-15T01:14:21.743Z,100525.25
2022-09-15T01:17:01.653Z,100524.38
2022-09-15T01:20:28.434Z,100520.06
2022-09-15T01:23:44.624Z,100528.94
2022-09-15T01:26:48.186Z,100520.09
2022-09-15T01:29:54.911Z,100520.09
2022-09-15T01:32:49.521Z,100521.78
2022-09-15T01:35:28.996Z,100523.44
2022-09-15T01:38:03.435Z,100522.50
2022-09-15T01:40:38.284Z,100532.09
2022-09-15T01:43:10.501Z,100531.16
2022-09-15T01:45:43.471Z,100536.41
2022-09-15T01:48:13.101Z,100537.25
2022-09-15T01:50:45.929Z,100537.28
2022-09-15T01:53:18.165Z,100538.19
2022-09-15T01:55:55.160Z,100547.06
2022-09-15T01:58:23.521Z,100545.28
2022-09-15T02:00:58.050Z,100545.28
2022-09-15T02:03:33.653Z,100541.78
2022-09-15T02:06:08.244Z,100541.78
2022-09-15T02:08:45.170Z,100538.28
2022-09-15T02:11:18.424Z,100536.53
2022-09-15T02:13:59.828Z,100533.03
2022-09-15T02:16:35.395Z,100527.81
2022-09-15T02:19:31.719Z,100517.28
2022-09-15T02:22:07.625Z,100531.41
2022-09-15T02:24:40.901Z,100534.09
2022-09-15T02:27:15.594Z,100532.31
2022-09-15T02:29:46.418Z,100543.72
2022-09-15T02:32:18.517Z,100567.41
2022-09-15T02:34:51.429Z,100575.44
2022-09-15T02:37:22.162Z,100566.16
2022-09-15T02:39:56.131Z,100571.88
2022-09-15T02:42:25.631Z,100569.53
2022-09-15T02:44:54.362Z,100563.56
2022-09-15T02:47:24.910Z,100558.53
2022-09-15T02:49:53.892Z,100563.06
2022-09-15T02:52:22.209Z,100562.28
2022-09-15T02:54:50.497Z,100565.94
2022-09-15T02:57:18.922Z,100570.38
2022-09-15T03:00:04.843Z,100571.34
2022-09-15T03:02:34.518Z,100569.78
2022-09-15T03:05:02.658Z,100577.81
2022-09-15T03:07:31.966Z,100577.91
2022-09-15T03:10:00.464Z,100567.34
2022-09-15T03:12:28.591Z,100581.41
2022-09-15T03:14:56.643Z,100576.13
2022-09-15T03:17:25.208Z,100555.97
2022-09-15T03:19:54.622Z,100547.13
2022-09-15T03:22:22.922Z,100548.81
2022-09-15T03:24:51.791Z,100550.50
2022-09-15T03:27:19.886Z,100546.91
2022-09-15T03:29:48.161Z,100542.47
2022-09-15T03:32:16.224Z,100538.91
2022-09-15T03:34:47.181Z,100544.19
2022-09-15T03:37:16.822Z,100552.97
2022-09-15T03:39:45.026Z,100554.81
2022-09-15T03:42:13.111Z,100555.66
2022-09-15T03:44:41.253Z,100549.44
2022-09-15T03:47:09.336Z,100556.44
2022-09-15T03:49:37.368Z,100545.81
2022-09-15T03:52:05.693Z,100552.75
2022-09-15T03:54:35.403Z,100553.53
2022-09-15T03:57:03.670Z,100555.19
2022-09-15T03:59:31.728Z,100558.69
2022-09-15T04:01:59.918Z,100547.19
2022-09-15T04:04:28.488Z,100545.38
2022-09-15T04:06:56.573Z,100547.97
2022-09-15T04:09:25.674Z,100550.53
2022-09-15T04:11:55.106Z,100545.25
2022-09-15T04:14:23.256Z,100550.47
2022-09-15T04:16:51.327Z,100542.50
2022-09-15T04:19:19.449Z,100545.13
2022-09-15T04:21:48.143Z,100549.41
2022-09-15T04:24:16.234Z,100545.91
2022-09-15T04:26:44.585Z,100547.63
2022-09-15T04:29:17.460Z,100552.88
2022-09-15T04:31:45.650Z,100551.16
2022-09-15T04:34:13.834Z,100552.06
2022-09-15T04:36:42.043Z,100548.66
2022-09-15T04:39:10.218Z,100548.78
2022-09-15T04:41:38.247Z,100557.75
2022-09-15T04:44:06.396Z,100550.88
2022-09-15T04:46:35.909Z,100551.81
2022-09-15T04:49:04.446Z,100550.13
2022-09-15T04:51:32.540Z,100549.28
2022-09-15T04:54:00.742Z,100546.69
2022-09-15T04:56:31.870Z,100551.06
2022-09-15T04:59:04.185Z,100556.34
2022-09-15T05:01:37.047Z,100548.50
2022-09-15T05:04:05.904Z,100547.69
2022-09-15T05:06:35.747Z,100546.88
2022-09-15T05:09:09.942Z,100553.97
2022-09-15T05:11:38.845Z,100558.44
2022-09-15T05:14:09.717Z,100555.84
2022-09-15T05:16:40.109Z,100553.22
2022-09-15T05:19:08.369Z,100551.44
2022-09-15T05:21:36.564Z,100553.25
2022-09-15T05:24:04.759Z,100548.06
2022-09-15T05:26:33.064Z,100544.75
2022-09-15T05:29:01.240Z,100545.72
2022-09-15T05:31:32.362Z,100548.50
2022-09-15T05:34:04.655Z,100539.78
2022-09-15T05:36:33.566Z,100541.66
2022-09-15T05:39:03.893Z,100547.84
2022-09-15T05:41:32.911Z,100542.59
2022-09-15T05:44:00.960Z,100545.28
2022-09-15T05:46:30.095Z,100546.19
2022-09-15T05:48:59.632Z,100541.78
2022-09-15T05:51:30.155Z,100547.94
2022-09-15T05:53:58.250Z,100553.19
2022-09-15T05:56:26.271Z,100554.91
2022-09-15T05:58:54.338Z,100553.03
2022-09-15T06:01:25.605Z,100553.72
2022-09-15T06:03:54.000Z,100556.94
2022-09-15T06:06:23.401Z,100553.16
2022-09-15T06:08:58.371Z,100559.06
2022-09-15T06:11:29.466Z,100558.84
2022-09-15T06:14:00.494Z,100555.16
2022-09-15T06:16:29.009Z,100554.06
2022-09-15T06:18:57.180Z,100551.31
2022-09-15T06:21:28.895Z,100551.16
2022-09-15T06:24:00.990Z,100559.81
2022-09-15T06:26:30.113Z,100549.16
2022-09-15T06:29:01.526Z,100548.25
2022-09-15T06:31:32.908Z,100556.16
2022-09-15T06:34:02.378Z,100557.00
2022-09-15T06:36:32.133Z,100557.75
2022-09-15T06:39:02.788Z,100549.59
2022-09-15T06:41:52.542Z,100549.25
2022-09-15T06:44:19.079Z,100555.97
2022-09-15T06:46:47.711Z,100552.16
2022-09-15T06:49:15.972Z,100556.25
2022-09-15T06:51:44.046Z,100550.72
2022-09-15T06:54:14.574Z,100557.44
2022-09-15T06:56:43.105Z,100554.50
2022-09-15T06:59:13.568Z,100557.75
2022-09-15T07:01:42.323Z,100554.91
2022-09-15T07:04:10.954Z,100565.19
2022-09-15T07:06:40.874Z,100553.47
2022-09-15T07:09:09.281Z,100562.06
2022-09-15T07:11:38.717Z,100571.66
2022-09-15T07:14:07.013Z,100574.19
2022-09-15T07:16:35.361Z,100571.44
2022-09-15T07:19:05.200Z,100581.88
2022-09-15T07:21:34.226Z,100576.47
2022-09-15T07:24:06.988Z,100581.59
2022-09-15T07:26:35.841Z,100582.13
2022-09-15T07:29:07.534Z,100585.38
2022-09-15T07:31:39.559Z,100583.50
2022-09-15T07:34:08.524Z,100586.75
2022-09-15T07:36:36.743Z,100594.50
2022-09-15T07:39:06.246Z,100595.19
2022-09-15T07:41:35.043Z,100597.69
2022-09-15T07:44:04.734Z,100599.16
2022-09-15T07:46:34.225Z,100596.94
2022-09-15T07:49:03.195Z,100598.31
2022-09-15T07:51:31.790Z,100591.84
2022-09-15T07:54:00.431Z,100601.19
2022-09-15T07:56:28.604Z,100601.88
2022-09-15T07:58:56.810Z,100609.75
2022-09-15T08:01:26.305Z,100612.13
2022-09-15T08:03:54.726Z,100619.06
2022-09-15T08:06:26.463Z,100614.63
2022-09-15T08:08:59.945Z,100628.06
2022-09-15T08:11:28.926Z,100623.72
2022-09-15T08:13:57.175Z,100636.22
2022-09-15T08:16:26.696Z,100637.25
2022-09-15T08:18:57.333Z,100635.63
2022-09-15T08:21:25.827Z,100634.81
2022-09-15T08:23:56.483Z,100635.72
2022-09-15T08:26:26.244Z,100628.56
2022-09-15T08:28:54.523Z,100632.00
2022-09-15T08:31:24.574Z,100633.53
2022-09-15T08:33:56.112Z,100621.69
2022-09-15T08:36:27.528Z,100623.22
2022-09-15T08:38:56.450Z,100631.03
2022-09-15T08:41:29.053Z,100634.50
2022-09-15T08:44:04.523Z,100647.38
2022-09-15T08:46:40.472Z,100640.47
2022-09-15T08:49:30.594Z,100645.16
2022-09-15T08:52:10.274Z,100642.91
2022-09-15T08:54:40.059Z,100650.41
2022-09-15T08:57:15.354Z,100650.63
2022-09-15T08:59:43.469Z,100657.25
2022-09-15T09:02:45.608Z,100643.66
2022-09-15T09:05:32.651Z,100660.19
2022-09-15T09:08:26.654Z,100655.50
2022-09-15T09:10:57.986Z,100658.88
2022-09-15T09:13:38.714Z,100656.66
2022-09-15T09:16:29.392Z,100679.44
2022-09-15T09:19:22.325Z,100678.88
2022-09-15T09:21:58.635Z,100683.25
2022-09-15T09:24:36.963Z,100680.59
2022-09-15T09:27:05.868Z,100676.75
2022-09-15T09:29:40.835Z,100677.41
2022-09-15T09:32:21.682Z,100686.00
2022-09-15T09:35:00.834Z,100694.34
2022-09-15T09:37:30.585Z,100698.69
2022-09-15T09:39:58.845Z,100703.22
2022-09-15T09:42:31.173Z,100700.91
2022-09-15T09:44:59.261Z,100704.41
2022-09-15T09:47:30.305Z,100699.09
2022-09-15T09:49:59.777Z,100694.66
2022-09-15T09:52:37.128Z,100694.75
2022-09-15T09:55:23.008Z,100698.66
2022-09-15T09:57:51.722Z,100697.25
2022-09-15T10:00:33.984Z,100711.00
2022-09-15T10:03:14.211Z,100725.38
2022-09-15T10:05:42.997Z,100724.66
2022-09-15T10:08:19.428Z,100731.06
2022-09-15T10:10:55.800Z,100711.97
2022-09-15T10:13:24.264Z,100702.34
2022-09-15T10:15:55.947Z,100696.13
2022-09-15T10:18:32.035Z,100695.09
2022-09-15T10:21:01.616Z,100694.03
2022-09-15T10:23:34.945Z,100687.69
2022-09-15T10:26:24.566Z,100692.41
2022-09-15T10:29:15.995Z,100693.06
2022-09-15T10:31:45.272Z,100680.66
2022-09-15T10:34:31.500Z,100676.16
2022-09-15T10:37:10.409Z,100685.53
2022-09-15T10:39:52.905Z,100687.19
2022-09-15T10:42:40.116Z,100686.53
2022-09-15T10:45:35.087Z,100686.25
2022-09-15T10:48:36.154Z,100690.72
2022-09-15T10:51:21.453Z,100697.22
2022-09-15T10:54:09.597Z,100693.66
2022-09-15T10:56:44.252Z,100693.16
2022-09-15T10:59:35.083Z,100706.09
2022-09-15T11:02:55.368Z,100703.78
2022-09-15T11:05:52.052Z,100714.75
2022-09-15T11:08:34.150Z,100711.59
2022-09-15T11:11:15.350Z,100717.06
2022-09-15T11:14:00.867Z,100709.38
2022-09-15T11:16:41.058Z,100703.78
2022-09-15T11:19:29.454Z,100705.88
2022-09-15T11:22:02.527Z,100696.91
2022-09-15T11:24:40.695Z,100692.00
2022-09-15T11:27:19.434Z,100684.50
2022-09-15T11:30:04.294Z,100679.03
2022-09-15T11:32:39.579Z,100686.25
2022-09-15T11:35:33.232Z,100691.91
2022-09-15T11:38:13.124Z,100694.00
2022-09-15T11:40:48.930Z,100694.47
2022-09-15T11:43:25.639Z,100688.03
2022-09-15T11:45:57.915Z,100691.66
2022-09-15T11:48:32.261Z,100686.44
2022-09-15T11:51:03.822Z,100684.13
2022-09-15T11:53:39.650Z,100691.50
2022-09-15T11:56:16.106Z,100694.28
2022-09-15T11:59:03.669Z,100701.22
2022-09-15T12:01:41.125Z,100697.28
2022-09-15T12:04:14.497Z,100689.38
2022-09-15T12:06:50.859Z,100687.09
2022-09-15T12:09:21.421Z,100691.94
2022-09-15T12:11:55.634Z,100688.16
2022-09-15T12:14:32.313Z,100700.06
2022-09-15T12:17:02.535Z,100690.59
2022-09-15T12:19:52.636Z,100690.72
2022-09-15T12:22:26.384Z,100695.13
2022-09-15T12:25:02.450Z,100695.91
2022-09-15T12:27:31.473Z,100701.16
2022-09-15T12:30:01.298Z,100696.47
2022-09-15T12:32:33.165Z,100696.47
2022-09-15T12:35:06.450Z,100707.59
2022-09-15T12:37:41.808Z,100708.66
2022-09-15T12:40:42.672Z,100707.84
2022-09-15T12:43:23.649Z,100711.28
2022-09-15T12:45:58.241Z,100719.97
2022-09-15T12:48:30.310Z,100714.81
2022-09-15T12:51:04.147Z,100698.47
2022-09-15T12:53:37.307Z,100705.84
2022-09-15T12:56:10.354Z,100700.22
2022-09-15T12:58:42.617Z,100707.50
2022-09-15T13:01:48.530Z,100695.75
2022-09-15T13:04:55.703Z,100694.00
2022-09-15T13:07:58.756Z,100699.63
2022-09-15T13:10:36.562Z,100688.50
2022-09-15T13:13:23.898Z,100696.16
2022-09-15T13:15:54.559Z,100681.81
2022-09-15T13:18:23.209Z,100691.94
2022-09-15T13:21:00.432Z,100689.09
2022-09-15T13:23:36.637Z,100684.78
2022-09-15T13:26:10.347Z,100688.41
2022-09-15T13:28:39.106Z,100680.56
2022-09-15T13:31:25.382Z,100688.41
2022-09-15T13:38:08.309Z,100718.66
2022-09-15T13:41:40.037Z,100722.81
2022-09-15T13:45:05.549Z,100723.75
2022-09-15T13:47:49.272Z,100715.84
2022-09-15T13:50:23.936Z,100717.72
2022-09-15T13:53:29.267Z,100710.91
2022-09-15T13:56:07.815Z,100713.78
2022-09-15T14:01:25.823Z,100712.25
2022-09-15T14:03:57.310Z,100718.03
2022-09-15T14:06:30.315Z,100729.63
2022-09-15T14:09:05.524Z,100723.41
2022-09-15T14:11:36.764Z,100717.06
2022-09-15T14:14:11.565Z,100725.06
2022-09-15T14:16:40.911Z,100726.16
2022-09-15T14:19:33.491Z,100719.22
2022-09-15T14:22:02.731Z,100720.72
2022-09-15T14:24:33.350Z,100720.44
2022-09-15T14:27:08.920Z,100712.66
2022-09-15T14:29:41.939Z,100712.84
2022-09-15T14:32:15.539Z,100716.28
2022-09-15T14:34:44.786Z,100711.97
2022-09-15T14:37:24.525Z,100719.91
2022-09-15T14:39:57.186Z,100727.94
2022-09-15T14:42:30.544Z,100722.69
2022-09-15T14:48:02.693Z,100732.34
2022-09-15T14:50:33.176Z,100726.63
2022-09-15T14:53:05.753Z,100745.16
2022-09-15T14:55:40.353Z,100741.91
2022-09-15T14:58:16.049Z,100741.78
2022-09-15T15:00:54.392Z,100740.50
2022-09-15T15:03:33.499Z,100747.41
2022-09-15T15:06:28.560Z,100739.63
2022-09-15T15:09:03.157Z,100731.84
2022-09-15T15:11:36.641Z,100738.28
2022-09-15T15:14:09.290Z,100730.06
2022-09-15T15:16:37.624Z,100732.50
2022-09-15T15:19:05.848Z,100734.28
2022-09-15T15:21:40.915Z,100732.75
2022-09-15T15:24:18.116Z,100735.31
2022-09-15T15:26:49.581Z,100738.81
2022-09-15T15:29:40.727Z,100743.09
2022-09-15T15:32:14.618Z,100748.72
2022-09-15T15:34:50.962Z,100756.25
2022-09-15T15:37:27.679Z,100759.91
2022-09-15T15:39:58.895Z,100760.66
2022-09-15T15:42:29.516Z,100754.19
2022-09-15T15:45:18.656Z,100758.09
2022-09-15T15:47:46.820Z,100762.66
2022-09-15T15:50:20.912Z,100759.19
2022-09-15T15:52:50.517Z,100772.50
2022-09-15T15:55:21.059Z,100752.44
2022-09-15T15:57:53.658Z,100757.81
2022-09-15T16:00:25.151Z,100764.31
2022-09-15T16:02:54.149Z,100762.66
2022-09-15T16:05:26.956Z,100765.09
2022-09-15T16:07:59.170Z,100758.69
2022-09-15T16:10:35.661Z,100756.53
2022-09-15T16:13:05.162Z,100748.31
2022-09-15T16:15:33.865Z,100745.84
2022-09-15T16:18:02.133Z,100745.34
2022-09-15T16:20:30.809Z,100751.88
2022-09-15T16:22:59.196Z,100753.78
2022-09-15T16:25:40.943Z,100745.09
2022-09-15T16:28:10.400Z,100742.47
2022-09-15T16:30:38.468Z,100751.25
2022-09-15T16:33:06.530Z,100746.78
2022-09-15T16:35:40.466Z,100749.25
2022-09-15T16:38:09.235Z,100737.72
2022-09-15T16:40:37.937Z,100730.59
2022-09-15T16:43:12.137Z,100733.94
2022-09-15T16:45:41.032Z,100747.00
2022-09-15T16:48:09.726Z,100738.00
2022-09-15T16:50:42.675Z,100744.81
2022-09-15T16:53:15.340Z,100732.31
2022-09-15T16:55:46.605Z,100740.97
2022-09-15T16:58:17.916Z,100746.16
2022-09-15T17:00:49.599Z,100758.00
2022-09-15T17:03:21.833Z,100760.34
2022-09-15T17:05:52.020Z,100764.84
2022-09-15T17:08:24.313Z,100761.28
2022-09-15T17:10:53.823Z,100761.56
2022-09-15T17:13:27.857Z,100756.59
2022-09-15T17:15:59.287Z,100765.63
2022-09-15T17:18:28.463Z,100779.09
2022-09-15T17:20:56.784Z,100773.31
2022-09-15T17:23:27.858Z,100772.78
2022-09-15T17:25:58.993Z,100776.47
2022-09-15T17:28:31.310Z,100776.69
2022-09-15T17:31:01.461Z,100782.19
2022-09-15T17:33:31.212Z,100786.78
2022-09-15T17:36:00.153Z,100791.25
2022-09-15T17:38:28.405Z,100790.41
2022-09-15T17:40:56.676Z,100787.81
2022-09-15T17:43:28.770Z,100782.59
2022-09-15T17:45:57.524Z,100783.53
2022-09-15T17:48:26.384Z,100782.72
2022-09-15T17:50:54.549Z,100780.16
2022-09-15T17:53:26.608Z,100774.91
2022-09-15T17:55:56.649Z,100769.66
2022-09-15T17:58:26.641Z,100775.88
2022-09-15T18:00:56.259Z,100779.50
2022-09-15T18:03:27.880Z,100776.06
2022-09-15T18:05:58.283Z,100774.41
2022-09-15T18:08:26.852Z,100763.00
2022-09-15T18:10:55.448Z,100763.88
2022-09-15T18:13:26.865Z,100758.66
2022-09-15T18:15:56.809Z,100767.50
2022-09-15T18:18:26.969Z,100769.25
2022-09-15T18:20:57.810Z,100780.69
2022-09-15T18:23:29.556Z,100774.56
2022-09-15T18:25:58.033Z,100772.00
2022-09-15T18:28:26.505Z,100785.22
2022-09-15T18:30:57.193Z,100783.50
2022-09-15T18:33:26.884Z,100780.91
2022-09-15T18:35:58.792Z,100787.03
2022-09-15T18:38:28.349Z,100790.53
2022-09-15T18:40:57.698Z,100795.75
2022-09-15T18:43:28.317Z,100790.47
2022-09-15T18:46:01.640Z,100788.66
2022-09-15T18:48:30.378Z,100796.56
2022-09-15T18:50:59.698Z,100794.84
2022-09-15T18:53:27.855Z,100793.13
2022-09-15T18:55:56.488Z,100807.09
2022-09-15T18:58:24.641Z,100814.06
2022-09-15T19:00:52.826Z,100815.75
2022-09-15T19:03:22.390Z,100812.16
2022-09-15T19:05:50.639Z,100808.66
2022-09-15T19:08:22.187Z,100799.81
2022-09-15T19:10:58.233Z,100791.94
2022-09-15T19:13:26.362Z,100804.25
2022-09-15T19:15:54.544Z,100802.53
2022-09-15T19:18:24.423Z,100800.81
2022-09-15T19:20:52.574Z,100796.50
2022-09-15T19:23:20.765Z,100802.69
2022-09-15T19:25:48.918Z,100795.72
2022-09-15T19:28:16.974Z,100794.91
2022-09-15T19:30:45.239Z,100792.38
2022-09-15T19:33:13.339Z,100799.44
2022-09-15T19:35:44.292Z,100799.50
2022-09-15T19:38:12.683Z,100797.81
2022-09-15T19:40:40.768Z,100807.50
2022-09-15T19:43:08.901Z,100804.00
2022-09-15T19:45:37.499Z,100806.69
2022-09-15T19:48:05.618Z,100800.66
2022-09-15T19:50:33.675Z,100798.06
2022-09-15T19:53:03.142Z,100796.41
2022-09-15T19:55:31.276Z,100798.22
2022-09-15T19:57:59.626Z,100796.53
2022-09-15T20:00:27.918Z,100789.59
2022-09-15T20:02:56.121Z,100799.25
2022-09-15T20:05:24.281Z,100794.91
2022-09-15T20:07:53.281Z,100794.94
2022-09-15T20:10:22.730Z,100801.97
2022-09-15T20:12:50.886Z,100802.84
2022-09-15T20:15:19.143Z,100805.50
2022-09-15T20:17:47.377Z,100806.41
2022-09-15T20:20:15.698Z,100804.66
2022-09-15T20:22:43.910Z,100800.28
2022-09-15T20:25:12.004Z,100793.31
2022-09-15T20:27:42.100Z,100794.16
2022-09-15T20:30:11.493Z,100801.19
2022-09-15T20:32:39.555Z,100804.69
2022-09-15T20:35:08.066Z,100802.03
2022-09-15T20:37:37.679Z,100806.41
2022-09-15T20:40:08.026Z,100806.38
2022-09-15T20:42:36.774Z,100804.59
2022-09-15T20:45:07.804Z,100811.56
2022-09-15T20:47:36.158Z,100812.47
2022-09-15T20:50:04.621Z,100812.47
2022-09-15T20:52:38.095Z,100815.09
2022-09-15T20:55:07.435Z,100805.44
2022-09-15T20:57:35.480Z,100810.72
2022-09-15T21:00:08.734Z,100802.00
2022-09-15T21:02:36.821Z,100811.63
2022-09-15T21:05:05.459Z,100800.28
2022-09-15T21:07:34.363Z,100805.56
2022-09-15T21:10:02.550Z,100798.59
2022-09-15T21:12:30.589Z,100792.47
2022-09-15T21:14:58.736Z,100802.97
2022-09-15T21:17:28.905Z,100807.34
2022-09-15T21:19:56.963Z,100803.00
2022-09-15T21:22:25.138Z,100812.59
2022-09-15T21:24:53.168Z,100802.13
2022-09-15T21:27:27.231Z,100810.88
2022-09-15T21:29:55.444Z,100810.00
2022-09-15T21:32:24.272Z,100805.66
2022-09-15T21:34:55.863Z,100813.53
2022-09-15T21:37:24.015Z,100810.94
2022-09-15T21:39:52.146Z,100817.94
2022-09-15T21:42:20.453Z,100820.56
2022-09-15T21:44:48.609Z,100825.81
2022-09-15T21:47:16.686Z,100828.44
2022-09-15T21:49:44.849Z,100822.31
2022-09-15T21:52:14.461Z,100827.56
2022-09-15T21:54:43.281Z,100826.69
2022-09-15T21:57:11.778Z,100825.84
2022-09-15T21:59:40.604Z,100831.97
2022-09-15T22:02:08.691Z,100835.41
2022-09-15T22:04:37.139Z,100844.16
2022-09-15T22:07:06.076Z,100845.00
2022-09-15T22:09:35.601Z,100849.31
2022-09-15T22:12:03.802Z,100844.91
2022-09-15T22:14:32.529Z,100845.75
2022-09-15T22:17:00.620Z,100838.72
2022-09-15T22:19:29.143Z,100842.22
2022-09-15T22:21:57.353Z,100838.69
2022-09-15T22:24:25.494Z,100835.16
2022-09-15T22:26:55.943Z,100833.44
2022-09-15T22:29:24.309Z,100826.44
2022-09-15T22:31:53.972Z,100821.22
2022-09-15T22:34:22.260Z,100827.38
2022-09-15T22:36:50.353Z,100823.03
2022-09-15T22:39:18.446Z,100819.56
2022-09-15T22:41:46.615Z,100810.81
2022-09-15T22:44:21.677Z,100819.63
2022-09-15T22:46:51.287Z,100802.13
2022-09-15T22:49:19.762Z,100797.75
2022-09-15T22:51:47.898Z,100802.13
2022-09-15T22:54:16.202Z,100798.63
2022-09-15T22:56:44.281Z,100793.41
2022-09-15T22:59:13.614Z,100795.16
2022-09-15T23:01:43.151Z,100801.31
2022-09-15T23:04:11.415Z,100795.19
2022-09-15T23:06:39.494Z,100807.44
2022-09-15T23:09:10.715Z,100806.53
2022-09-15T23:11:40.624Z,100805.66
2022-09-15T23:14:14.942Z,100803.88
2022-09-15T23:16:44.799Z,100803.00
2022-09-15T23:19:14.290Z,100799.47
2022-09-15T23:21:42.676Z,100800.38
2022-09-15T23:24:12.408Z,100807.31
2022-09-15T23:26:40.663Z,100805.56
2022-09-15T23:29:10.007Z,100812.56
2022-09-15T23:31:38.309Z,100818.69
2022-09-15T23:34:07.862Z,100826.53
2022-09-15T23:36:36.003Z,100824.81
2022-09-15T23:39:04.197Z,100833.56
2022-09-15T23:41:32.298Z,100837.06
2022-09-15T23:44:00.397Z,100830.03
2022-09-15T23:46:28.537Z,100826.50
2022-09-15T23:48:56.674Z,100826.47
2022-09-15T23:51:26.293Z,100828.22
2022-09-15T23:53:55.171Z,100820.31
2022-09-15T23:56:23.269Z,100820.34
2022-09-15T23:58:51.430Z,100816.91
